Rybinsk, Russia
Current Conditions -  °F | °C
As of 7:30 AM on Friday 31 Oct 2014 (Local Time) from UUDL Reporting Station
Overcast Overcast  
Wind Chill: 32°   Ceiling: 1000
Heat Index: 36°   Visibility: 5mi
Dew Point: 28°   Wind: 4mph
Humidity: 75%   Direction: 250°WSW
Pressure: 30"   Gusts: NA
Location:  58.05°N, 38.83°E
Report Text: UUDL 310430Z 25002MPS 8000 OVC010 02/M02 Q1016 NOSIG RMKQFE753
Loading
Personal Weather Stations






























Interactive Weather Map
Tropical Storm Tracking
New forecast layout! Learn more

10-Day Weather Forecast

Advertisements
Track Severe Weather on mobile